Nearby METAR Reports

 

KECP - Panama City, Florida, USA
Distance from station: WNW 11mi, 18km
Updated: Thu, 25-Apr-2024 8:53am CDT
Clear
Clear
 Wind from WNW
Wind: WNW 8 mph , 13 km/h
Temperature: 73°F , 23°C
Dew Point: 64°F , 18°C
Humidity: 74%
Barometer: 30.15 inHg , 1021 hPa
Clouds: Clear
Visibility: 10 miles , 16 km
2024/04/25 13:53 KECP 251353Z 30007KT 10SM CLR 23/18 A3015 RMK AO1 SLP220 T02330183
KPAM - Tyndall Afb, Florida, USA
Distance from station: S 17mi, 28km
Updated: Thu, 25-Apr-2024 8:55am CDT
Clear
Clear
 Wind from NNW
Wind: NNW 5 mph , 7 km/h
Temperature: 75°F , 24°C
Dew Point: 64°F , 18°C
Humidity: 69%
Barometer: 30.14 inHg , 1020.7 hPa
Clouds: Clear
Visibility: 10 miles , 16 km
2024/04/25 13:55 KPAM 251355Z AUTO 33004KT 10SM CLR 24/18 A3014 RMK AO2 SLP209 T02360180 $
 
KTDR - Tyndall Drone, Florida, USA
Distance from station: SSE 19mi, 31km
Updated: Thu, 25-Apr-2024 8:55am CDT
Clear
Clear
 Wind from NE
Wind: NE 3 mph , 6 km/h
Temperature: 73°F , 23°C
Dew Point: 64°F , 18°C
Humidity: 74%
Barometer: 30.11 inHg , 1019.6 hPa
Clouds: Clear
Visibility: 10 miles , 16 km
2024/04/25 13:55 KTDR 251355Z AUTO 04003KT 10SM CLR 23/18 A3011 RMK AO2 SLP200 T02250184 $
KBCR - Bonifay Tri-Cty, Florida, USA
Distance from station: N 37mi, 60km
Updated: Thu, 25-Apr-2024 8:58am CDT
Clear
Clear
 Wind from varies
Wind: varies 5 mph , 7 km/h
Temperature: 75°F , 24°C
Dew Point: 61°F , 16°C
Humidity: 61%
Barometer: 30.17 inHg , 1021.7 hPa
Clouds: Clear
Visibility: 10 miles , 16 km
2024/04/25 13:58 KBCR 251358Z AUTO VRB04KT 10SM CLR 24/16 A3017 RMK AO2 SLP173 T02390156
 
K54J - De Funiak Sprngs, Florida, USA
Distance from station: NW 43mi, 69km
Updated: Thu, 25-Apr-2024 9:15am CDT
Clear
Clear
 Wind from NW
Wind: NW 7 mph , 11 km/h
Temperature: 73°F , 23°C
Dew Point: 61°F , 16°C
Humidity: 65%
Barometer: 30.17 inHg , 1021.7 hPa
Clouds: Clear
Visibility: 10 miles , 16 km
2024/04/25 14:15 K54J 251415Z AUTO 32006KT 10SM CLR 23/16 A3017 RMK AO2 T02300156
KMAI - Marianna, Florida, USA
Distance from station: NE 44mi, 71km
Updated: Thu, 25-Apr-2024 8:53am CDT
Clear
Clear
 Wind from N
Wind: N 5 mph , 7 km/h
Temperature: 73°F , 23°C
Dew Point: 64°F , 18°C
Humidity: 74%
Barometer: 30.15 inHg , 1021 hPa
Clouds: Clear
Visibility: 10 miles , 16 km
2024/04/25 13:53 KMAI 251353Z AUTO 35004KT 10SM CLR 23/18 A3015 RMK AO2 SLP209 T02280178